Terminal Aerodrome Forecast
Issued by NWS

Home | Current Version | Previous Version | Text Only | Print | Product List | Glossary On
Versions: 1 2 3 4 5 6 7 8 9 10
966
FTUS44 KLIX 062320
TAFMSY
TAF
KMSY 062320Z 0700/0724 35004KT P6SM BKN100
     FM070230 35005KT P6SM FEW110 SCT250
     FM072200 28006KT P6SM FEW250=

USA.gov is the U.S. government's official web portal to all federal, state and local government web resources and services.